sensor_id;sensor_type;location;lat;lon;timestamp;pressure;altitude;pressure_sealevel;temperature;humidity
64053;BME280;50299;49.524;8.536;2023-07-13T00:00:12;100439.84;;;17.15;39.06
64053;BME280;50299;49.524;8.536;2023-07-13T00:02:42;100439.53;;;16.51;38.52
64053;BME280;50299;49.524;8.536;2023-07-13T00:05:09;100441.44;;;16.89;38.78
64053;BME280;50299;49.524;8.536;2023-07-13T00:07:36;100447.03;;;16.08;39.67
64053;BME280;50299;49.524;8.536;2023-07-13T00:10:03;100447.03;;;16.08;39.81
64053;BME280;50299;49.524;8.536;2023-07-13T00:12:33;100449.66;;;16.20;39.88
64053;BME280;50299;49.524;8.536;2023-07-13T00:15:03;100449.41;;;16.06;39.99
64053;BME280;50299;49.524;8.536;2023-07-13T00:17:30;100447.16;;;16.54;39.81
64053;BME280;50299;49.524;8.536;2023-07-13T00:19:57;100463.88;;;16.73;41.31
64053;BME280;50299;49.524;8.536;2023-07-13T00:22:26;100461.69;;;16.63;39.53
64053;BME280;50299;49.524;8.536;2023-07-13T00:24:53;100468.16;;;16.28;40.39
64053;BME280;50299;49.524;8.536;2023-07-13T00:27:24;100470.69;;;16.14;41.26
64053;BME280;50299;49.524;8.536;2023-07-13T00:29:52;100464.88;;;16.23;40.83
64053;BME280;50299;49.524;8.536;2023-07-13T00:32:19;100468.31;;;15.97;41.20
64053;BME280;50299;49.524;8.536;2023-07-13T00:34:45;100459.03;;;15.73;41.26
64053;BME280;50299;49.524;8.536;2023-07-13T00:37:17;100459.06;;;15.93;41.51
64053;BME280;50299;49.524;8.536;2023-07-13T00:39:44;100460.69;;;15.94;41.51
64053;BME280;50299;49.524;8.536;2023-07-13T00:42:11;100466.06;;;15.67;41.57
64053;BME280;50299;49.524;8.536;2023-07-13T00:44:38;100454.06;;;15.47;42.08
64053;BME280;50299;49.524;8.536;2023-07-13T00:47:06;100453.84;;;15.56;44.70
64053;BME280;50299;49.524;8.536;2023-07-13T00:49:35;100450.50;;;15.66;42.84
64053;BME280;50299;49.524;8.536;2023-07-13T00:52:07;100451.75;;;15.69;43.00
64053;BME280;50299;49.524;8.536;2023-07-13T00:54:45;100462.91;;;15.69;43.32
64053;BME280;50299;49.524;8.536;2023-07-13T00:57:16;100457.75;;;15.71;42.48
64053;BME280;50299;49.524;8.536;2023-07-13T00:59:46;100459.34;;;15.52;42.30
64053;BME280;50299;49.524;8.536;2023-07-13T01:02:14;100461.13;;;15.61;44.34
64053;BME280;50299;49.524;8.536;2023-07-13T01:04:41;100466.59;;;15.57;44.07
64053;BME280;50299;49.524;8.536;2023-07-13T01:07:12;100455.28;;;15.50;44.00
64053;BME280;50299;49.524;8.536;2023-07-13T01:09:39;100460.34;;;15.44;45.31
64053;BME280;50299;49.524;8.536;2023-07-13T01:12:08;100460.63;;;15.39;45.92
64053;BME280;50299;49.524;8.536;2023-07-13T01:14:34;100459.47;;;15.24;45.51
64053;BME280;50299;49.524;8.536;2023-07-13T01:17:01;100456.97;;;15.19;45.12
64053;BME280;50299;49.524;8.536;2023-07-13T01:19:38;100456.75;;;15.12;46.33
64053;BME280;50299;49.524;8.536;2023-07-13T01:22:08;100457.91;;;14.79;46.10
64053;BME280;50299;49.524;8.536;2023-07-13T01:24:39;100451.91;;;14.34;46.63
64053;BME280;50299;49.524;8.536;2023-07-13T01:27:07;100458.50;;;14.41;47.73
64053;BME280;50299;49.524;8.536;2023-07-13T01:29:36;100466.50;;;14.30;47.40
64053;BME280;50299;49.524;8.536;2023-07-13T01:32:10;100467.91;;;14.37;47.41
64053;BME280;50299;49.524;8.536;2023-07-13T01:34:37;100460.19;;;14.18;48.70
64053;BME280;50299;49.524;8.536;2023-07-13T01:37:05;100461.88;;;14.35;48.79
64053;BME280;50299;49.524;8.536;2023-07-13T01:39:31;100463.78;;;14.46;49.11
64053;BME280;50299;49.524;8.536;2023-07-13T01:41:58;100459.03;;;14.47;48.96
64053;BME280;50299;49.524;8.536;2023-07-13T01:44:24;100463.03;;;14.34;47.25
64053;BME280;50299;49.524;8.536;2023-07-13T01:46:52;100471.44;;;14.09;48.52
64053;BME280;50299;49.524;8.536;2023-07-13T01:49:18;100469.94;;;13.71;47.79
64053;BME280;50299;49.524;8.536;2023-07-13T01:51:45;100463.91;;;13.32;48.33
64053;BME280;50299;49.524;8.536;2023-07-13T01:54:12;100474.00;;;13.13;48.63
64053;BME280;50299;49.524;8.536;2023-07-13T01:56:38;100470.28;;;13.21;48.29
64053;BME280;50299;49.524;8.536;2023-07-13T01:59:06;100480.91;;;13.31;48.46
64053;BME280;50299;49.524;8.536;2023-07-13T02:01:32;100483.00;;;13.46;47.92
64053;BME280;50299;49.524;8.536;2023-07-13T02:03:59;100489.22;;;13.92;46.98
64053;BME280;50299;49.524;8.536;2023-07-13T02:06:25;100486.84;;;14.06;48.06
64053;BME280;50299;49.524;8.536;2023-07-13T02:08:52;100490.88;;;14.21;47.85
64053;BME280;50299;49.524;8.536;2023-07-13T02:11:18;100488.88;;;14.22;46.48
64053;BME280;50299;49.524;8.536;2023-07-13T02:13:45;100499.81;;;14.02;47.51
64053;BME280;50299;49.524;8.536;2023-07-13T02:16:11;100491.41;;;14.27;48.72
64053;BME280;50299;49.524;8.536;2023-07-13T02:18:38;100490.47;;;14.35;49.38
64053;BME280;50299;49.524;8.536;2023-07-13T02:21:05;100501.41;;;14.28;48.75
64053;BME280;50299;49.524;8.536;2023-07-13T02:23:31;100496.13;;;13.98;48.79
64053;BME280;50299;49.524;8.536;2023-07-13T02:25:59;100503.50;;;14.19;49.02
64053;BME280;50299;49.524;8.536;2023-07-13T02:28:26;100496.78;;;14.20;49.29
64053;BME280;50299;49.524;8.536;2023-07-13T02:31:03;100506.44;;;13.98;49.09
64053;BME280;50299;49.524;8.536;2023-07-13T02:33:30;100504.31;;;13.67;49.63
64053;BME280;50299;49.524;8.536;2023-07-13T02:35:56;100507.88;;;13.79;50.86
64053;BME280;50299;49.524;8.536;2023-07-13T02:38:23;100504.84;;;13.85;50.46
64053;BME280;50299;49.524;8.536;2023-07-13T02:40:49;100509.25;;;13.73;49.95
64053;BME280;50299;49.524;8.536;2023-07-13T02:43:16;100507.09;;;13.54;51.52
64053;BME280;50299;49.524;8.536;2023-07-13T02:45:45;100506.47;;;13.37;51.19
64053;BME280;50299;49.524;8.536;2023-07-13T02:48:13;100510.19;;;13.28;51.66
64053;BME280;50299;49.524;8.536;2023-07-13T02:50:40;100510.53;;;13.15;51.46
64053;BME280;50299;49.524;8.536;2023-07-13T02:53:07;100500.47;;;13.10;52.51
64053;BME280;50299;49.524;8.536;2023-07-13T02:55:33;100509.00;;;13.05;51.93
64053;BME280;50299;49.524;8.536;2023-07-13T02:58:00;100509.59;;;13.11;53.08
64053;BME280;50299;49.524;8.536;2023-07-13T03:00:27;100499.41;;;13.15;52.88
64053;BME280;50299;49.524;8.536;2023-07-13T03:02:54;100505.84;;;12.82;52.57
64053;BME280;50299;49.524;8.536;2023-07-13T03:05:23;100504.13;;;12.90;52.99
64053;BME280;50299;49.524;8.536;2023-07-13T03:07:50;100505.75;;;12.91;53.28
64053;BME280;50299;49.524;8.536;2023-07-13T03:10:16;100501.84;;;13.04;54.44
64053;BME280;50299;49.524;8.536;2023-07-13T03:12:43;100501.13;;;12.95;52.76
64053;BME280;50299;49.524;8.536;2023-07-13T03:15:09;100510.16;;;12.92;53.76
64053;BME280;50299;49.524;8.536;2023-07-13T03:17:36;100507.81;;;12.81;54.73
64053;BME280;50299;49.524;8.536;2023-07-13T03:20:02;100516.44;;;12.68;54.09
64053;BME280;50299;49.524;8.536;2023-07-13T03:22:29;100502.91;;;12.45;54.90
64053;BME280;50299;49.524;8.536;2023-07-13T03:24:55;100510.31;;;11.78;55.25
64053;BME280;50299;49.524;8.536;2023-07-13T03:27:22;100514.75;;;11.71;57.08
64053;BME280;50299;49.524;8.536;2023-07-13T03:29:48;100504.75;;;11.78;56.29
64053;BME280;50299;49.524;8.536;2023-07-13T03:32:15;100511.53;;;11.60;57.24
64053;BME280;50299;49.524;8.536;2023-07-13T03:34:41;100518.66;;;11.70;58.64
64053;BME280;50299;49.524;8.536;2023-07-13T03:37:08;100515.25;;;11.94;58.33
64053;BME280;50299;49.524;8.536;2023-07-13T03:39:38;100513.44;;;12.19;57.57
64053;BME280;50299;49.524;8.536;2023-07-13T03:42:05;100512.56;;;12.27;58.24
64053;BME280;50299;49.524;8.536;2023-07-13T03:44:31;100519.13;;;12.22;57.83
64053;BME280;50299;49.524;8.536;2023-07-13T03:46:58;100526.41;;;12.27;58.06
64053;BME280;50299;49.524;8.536;2023-07-13T03:49:25;100524.78;;;12.26;57.25
64053;BME280;50299;49.524;8.536;2023-07-13T03:51:51;100530.66;;;12.24;56.83
64053;BME280;50299;49.524;8.536;2023-07-13T03:54:19;100527.22;;;12.27;57.33
64053;BME280;50299;49.524;8.536;2023-07-13T03:56:46;100523.97;;;12.25;58.12
64053;BME280;50299;49.524;8.536;2023-07-13T03:59:12;100531.31;;;12.21;58.64
64053;BME280;50299;49.524;8.536;2023-07-13T04:01:39;100534.44;;;12.20;58.00
64053;BME280;50299;49.524;8.536;2023-07-13T04:04:05;100531.03;;;11.72;58.99
64053;BME280;50299;49.524;8.536;2023-07-13T04:06:32;100532.34;;;11.96;60.10
64053;BME280;50299;49.524;8.536;2023-07-13T04:09:01;100534.38;;;12.07;58.16
64053;BME280;50299;49.524;8.536;2023-07-13T04:11:29;100534.97;;;12.13;59.04
64053;BME280;50299;49.524;8.536;2023-07-13T04:13:58;100538.31;;;12.27;58.61
64053;BME280;50299;49.524;8.536;2023-07-13T04:16:25;100540.31;;;12.39;58.78
64053;BME280;50299;49.524;8.536;2023-07-13T04:18:52;100544.56;;;12.57;59.63
64053;BME280;50299;49.524;8.536;2023-07-13T04:21:21;100551.13;;;12.74;60.75
64053;BME280;50299;49.524;8.536;2023-07-13T04:23:48;100548.03;;;12.75;56.46
64053;BME280;50299;49.524;8.536;2023-07-13T04:26:15;100548.16;;;12.91;62.38
64053;BME280;50299;49.524;8.536;2023-07-13T04:28:41;100558.03;;;12.47;56.98
64053;BME280;50299;49.524;8.536;2023-07-13T04:31:08;100551.78;;;12.50;57.89
64053;BME280;50299;49.524;8.536;2023-07-13T04:33:34;100557.34;;;12.50;57.92
64053;BME280;50299;49.524;8.536;2023-07-13T04:36:01;100556.00;;;12.77;58.02
64053;BME280;50299;49.524;8.536;2023-07-13T04:38:30;100561.47;;;12.98;57.62
64053;BME280;50299;49.524;8.536;2023-07-13T04:41:00;100561.91;;;13.33;56.91
64053;BME280;50299;49.524;8.536;2023-07-13T04:43:28;100551.53;;;13.67;55.49
64053;BME280;50299;49.524;8.536;2023-07-13T04:45:55;100561.72;;;13.75;55.54
64053;BME280;50299;49.524;8.536;2023-07-13T04:48:23;100555.91;;;13.80;55.66
64053;BME280;50299;49.524;8.536;2023-07-13T04:50:55;100554.84;;;13.97;56.09
64053;BME280;50299;49.524;8.536;2023-07-13T04:53:23;100559.34;;;14.01;55.29
64053;BME280;50299;49.524;8.536;2023-07-13T04:55:50;100556.47;;;13.86;55.10
64053;BME280;50299;49.524;8.536;2023-07-13T04:58:17;100553.38;;;13.75;55.60
64053;BME280;50299;49.524;8.536;2023-07-13T05:00:46;100561.47;;;13.80;55.38
64053;BME280;50299;49.524;8.536;2023-07-13T05:03:13;100564.59;;;13.91;55.71
64053;BME280;50299;49.524;8.536;2023-07-13T05:05:39;100566.66;;;14.06;55.31
64053;BME280;50299;49.524;8.536;2023-07-13T05:08:06;100575.44;;;14.33;55.49
64053;BME280;50299;49.524;8.536;2023-07-13T05:10:34;100560.72;;;14.60;55.15
64053;BME280;50299;49.524;8.536;2023-07-13T05:15:27;100576.16;;;15.29;55.76
64053;BME280;50299;49.524;8.536;2023-07-13T05:17:53;100574.00;;;15.70;57.03
64053;BME280;50299;49.524;8.536;2023-07-13T05:20:20;100584.63;;;15.96;54.04
64053;BME280;50299;49.524;8.536;2023-07-13T05:22:47;100579.53;;;16.18;52.82
64053;BME280;50299;49.524;8.536;2023-07-13T05:25:17;100585.69;;;16.27;52.45
64053;BME280;50299;49.524;8.536;2023-07-13T05:27:43;100586.06;;;16.25;49.23
64053;BME280;50299;49.524;8.536;2023-07-13T05:30:12;100588.34;;;16.04;47.70
64053;BME280;50299;49.524;8.536;2023-07-13T05:32:39;100596.63;;;16.36;51.03
64053;BME280;50299;49.524;8.536;2023-07-13T05:35:06;100596.09;;;16.85;51.02
64053;BME280;50299;49.524;8.536;2023-07-13T05:37:33;100592.16;;;17.32;47.44
64053;BME280;50299;49.524;8.536;2023-07-13T05:40:00;100595.34;;;17.30;41.50
64053;BME280;50299;49.524;8.536;2023-07-13T05:42:27;100590.84;;;17.02;43.31
64053;BME280;50299;49.524;8.536;2023-07-13T05:44:54;100596.16;;;17.08;43.61
64053;BME280;50299;49.524;8.536;2023-07-13T05:47:20;100607.19;;;17.43;42.36
64053;BME280;50299;49.524;8.536;2023-07-13T05:49:47;100604.84;;;16.83;43.40
64053;BME280;50299;49.524;8.536;2023-07-13T05:52:13;100609.00;;;16.54;42.71
64053;BME280;50299;49.524;8.536;2023-07-13T05:54:39;100614.84;;;17.26;43.94
64053;BME280;50299;49.524;8.536;2023-07-13T05:57:06;100614.75;;;17.23;41.69
64053;BME280;50299;49.524;8.536;2023-07-13T05:59:32;100614.94;;;17.11;42.80
64053;BME280;50299;49.524;8.536;2023-07-13T06:01:59;100619.16;;;17.43;44.64
64053;BME280;50299;49.524;8.536;2023-07-13T06:04:26;100618.34;;;17.66;42.80
64053;BME280;50299;49.524;8.536;2023-07-13T06:06:52;100622.56;;;17.79;42.78
64053;BME280;50299;49.524;8.536;2023-07-13T06:09:19;100622.84;;;17.97;43.40
64053;BME280;50299;49.524;8.536;2023-07-13T06:11:46;100611.38;;;17.56;41.18
64053;BME280;50299;49.524;8.536;2023-07-13T06:14:12;100620.78;;;17.67;44.35
64053;BME280;50299;49.524;8.536;2023-07-13T06:16:39;100628.28;;;17.86;41.11
64053;BME280;50299;49.524;8.536;2023-07-13T06:19:06;100631.47;;;18.38;40.60
64053;BME280;50299;49.524;8.536;2023-07-13T06:21:33;100632.50;;;19.20;39.90
64053;BME280;50299;49.524;8.536;2023-07-13T06:23:59;100637.09;;;19.76;39.52
64053;BME280;50299;49.524;8.536;2023-07-13T06:26:26;100639.88;;;20.28;38.87
64053;BME280;50299;49.524;8.536;2023-07-13T06:28:52;100643.56;;;20.39;35.63
64053;BME280;50299;49.524;8.536;2023-07-13T06:31:19;100644.47;;;20.54;35.94
64053;BME280;50299;49.524;8.536;2023-07-13T06:33:48;100639.38;;;20.81;36.25
64053;BME280;50299;49.524;8.536;2023-07-13T06:36:14;100639.47;;;21.09;38.52
64053;BME280;50299;49.524;8.536;2023-07-13T06:38:41;100651.53;;;21.06;36.16
64053;BME280;50299;49.524;8.536;2023-07-13T06:41:08;100647.53;;;21.22;34.25
64053;BME280;50299;49.524;8.536;2023-07-13T06:43:39;100639.50;;;21.13;34.82
64053;BME280;50299;49.524;8.536;2023-07-13T06:46:12;100649.22;;;21.55;33.15
64053;BME280;50299;49.524;8.536;2023-07-13T06:48:38;100661.31;;;21.80;34.69
64053;BME280;50299;49.524;8.536;2023-07-13T06:51:05;100655.72;;;21.98;35.43
64053;BME280;50299;49.524;8.536;2023-07-13T06:53:31;100660.03;;;22.49;32.00
64053;BME280;50299;49.524;8.536;2023-07-13T06:55:58;100664.38;;;22.86;32.46
64053;BME280;50299;49.524;8.536;2023-07-13T06:58:25;100659.41;;;23.11;33.19
64053;BME280;50299;49.524;8.536;2023-07-13T07:00:52;100657.22;;;23.48;32.64
64053;BME280;50299;49.524;8.536;2023-07-13T07:03:19;100659.38;;;23.85;32.87
64053;BME280;50299;49.524;8.536;2023-07-13T07:05:46;100657.00;;;23.80;31.07
64053;BME280;50299;49.524;8.536;2023-07-13T07:08:13;100663.69;;;24.00;31.74
64053;BME280;50299;49.524;8.536;2023-07-13T07:10:40;100666.00;;;24.12;29.07
64053;BME280;50299;49.524;8.536;2023-07-13T07:13:06;100665.72;;;24.45;31.96
64053;BME280;50299;49.524;8.536;2023-07-13T07:15:34;100663.44;;;24.67;29.50
64053;BME280;50299;49.524;8.536;2023-07-13T07:18:01;100667.53;;;24.62;30.04
64053;BME280;50299;49.524;8.536;2023-07-13T07:20:27;100669.78;;;23.36;28.80
64053;BME280;50299;49.524;8.536;2023-07-13T07:22:54;100671.41;;;23.93;28.45
64053;BME280;50299;49.524;8.536;2023-07-13T07:25:21;100673.22;;;22.91;27.17
64053;BME280;50299;49.524;8.536;2023-07-13T07:27:47;100661.31;;;21.62;28.93
64053;BME280;50299;49.524;8.536;2023-07-13T07:30:17;100666.94;;;22.34;28.69
64053;BME280;50299;49.524;8.536;2023-07-13T07:32:46;100674.53;;;22.55;28.19
64053;BME280;50299;49.524;8.536;2023-07-13T07:35:15;100670.56;;;21.74;29.24
64053;BME280;50299;49.524;8.536;2023-07-13T07:37:42;100667.69;;;22.52;30.77
64053;BME280;50299;49.524;8.536;2023-07-13T07:40:11;100666.56;;;23.41;30.89
64053;BME280;50299;49.524;8.536;2023-07-13T07:42:41;100663.53;;;24.14;28.89
64053;BME280;50299;49.524;8.536;2023-07-13T07:45:07;100669.72;;;24.44;27.03
64053;BME280;50299;49.524;8.536;2023-07-13T07:47:34;100672.94;;;24.46;27.09
64053;BME280;50299;49.524;8.536;2023-07-13T07:50:00;100666.50;;;24.45;28.91
64053;BME280;50299;49.524;8.536;2023-07-13T07:52:27;100677.56;;;23.18;28.97
64053;BME280;50299;49.524;8.536;2023-07-13T07:54:54;100670.53;;;21.66;29.76
64053;BME280;50299;49.524;8.536;2023-07-13T07:57:23;100673.38;;;22.34;31.24
64053;BME280;50299;49.524;8.536;2023-07-13T07:59:53;100674.94;;;22.60;29.35
64053;BME280;50299;49.524;8.536;2023-07-13T08:02:22;100676.16;;;22.59;28.65
64053;BME280;50299;49.524;8.536;2023-07-13T08:04:57;100676.22;;;23.36;31.00
64053;BME280;50299;49.524;8.536;2023-07-13T08:07:27;100674.84;;;24.14;28.16
64053;BME280;50299;49.524;8.536;2023-07-13T08:09:54;100671.44;;;24.72;29.42
64053;BME280;50299;49.524;8.536;2023-07-13T08:12:20;100670.75;;;25.25;27.38
64053;BME280;50299;49.524;8.536;2023-07-13T08:14:50;100672.09;;;25.48;25.85
64053;BME280;50299;49.524;8.536;2023-07-13T08:17:22;100669.69;;;25.46;26.03
64053;BME280;50299;49.524;8.536;2023-07-13T08:19:50;100672.13;;;23.48;27.65
64053;BME280;50299;49.524;8.536;2023-07-13T08:22:16;100676.34;;;23.15;28.09
64053;BME280;50299;49.524;8.536;2023-07-13T08:24:43;100667.06;;;23.81;28.16
64053;BME280;50299;49.524;8.536;2023-07-13T08:27:11;100671.72;;;24.02;28.07
64053;BME280;50299;49.524;8.536;2023-07-13T08:29:40;100671.22;;;24.55;25.82
64053;BME280;50299;49.524;8.536;2023-07-13T08:32:07;100656.69;;;24.91;28.99
64053;BME280;50299;49.524;8.536;2023-07-13T08:34:42;100660.00;;;24.86;25.95
64053;BME280;50299;49.524;8.536;2023-07-13T08:37:09;100668.78;;;22.90;27.64
64053;BME280;50299;49.524;8.536;2023-07-13T08:39:36;100669.44;;;23.86;27.34
64053;BME280;50299;49.524;8.536;2023-07-13T08:42:12;100660.66;;;24.22;27.69
64053;BME280;50299;49.524;8.536;2023-07-13T08:47:35;100657.00;;;23.13;27.55
64053;BME280;50299;49.524;8.536;2023-07-13T08:50:04;100657.34;;;23.30;27.12
64053;BME280;50299;49.524;8.536;2023-07-13T08:52:37;100652.88;;;22.30;29.05
64053;BME280;50299;49.524;8.536;2023-07-13T08:55:21;100661.38;;;23.29;28.66
64053;BME280;50299;49.524;8.536;2023-07-13T08:57:56;100664.81;;;23.58;26.90
64053;BME280;50299;49.524;8.536;2023-07-13T09:00:34;100659.00;;;23.83;27.22
64053;BME280;50299;49.524;8.536;2023-07-13T09:03:05;100659.75;;;23.28;27.25
64053;BME280;50299;49.524;8.536;2023-07-13T09:05:40;100661.38;;;23.29;27.36
64053;BME280;50299;49.524;8.536;2023-07-13T09:08:19;100641.97;;;23.38;27.82
64053;BME280;50299;49.524;8.536;2023-07-13T09:10:59;100650.09;;;23.88;26.76
64053;BME280;50299;49.524;8.536;2023-07-13T09:13:37;100648.75;;;24.03;28.32
64053;BME280;50299;49.524;8.536;2023-07-13T09:16:07;100643.66;;;24.67;31.40
64053;BME280;50299;49.524;8.536;2023-07-13T09:18:39;100643.09;;;23.48;26.35
64053;BME280;50299;49.524;8.536;2023-07-13T09:21:17;100650.34;;;22.72;27.95
64053;BME280;50299;49.524;8.536;2023-07-13T09:23:45;100640.81;;;23.87;26.44
64053;BME280;50299;49.524;8.536;2023-07-13T09:26:22;100639.72;;;23.71;26.11
64053;BME280;50299;49.524;8.536;2023-07-13T09:28:54;100638.41;;;23.30;26.38
64053;BME280;50299;49.524;8.536;2023-07-13T09:31:28;100651.41;;;23.03;26.70
64053;BME280;50299;49.524;8.536;2023-07-13T09:33:57;100642.38;;;23.92;27.11
64053;BME280;50299;49.524;8.536;2023-07-13T09:36:27;100650.22;;;23.00;26.53
64053;BME280;50299;49.524;8.536;2023-07-13T09:39:02;100640.56;;;22.98;26.66
64053;BME280;50299;49.524;8.536;2023-07-13T09:41:41;100649.38;;;23.03;27.15
64053;BME280;50299;49.524;8.536;2023-07-13T09:44:15;100637.47;;;23.48;27.30
64053;BME280;50299;49.524;8.536;2023-07-13T09:46:47;100637.44;;;22.81;26.17
64053;BME280;50299;49.524;8.536;2023-07-13T09:49:18;100639.97;;;22.33;28.12
64053;BME280;50299;49.524;8.536;2023-07-13T09:51:57;100644.59;;;23.00;27.67
64053;BME280;50299;49.524;8.536;2023-07-13T09:54:25;100639.19;;;21.54;27.16
64053;BME280;50299;49.524;8.536;2023-07-13T09:56:56;100644.78;;;20.41;28.46
64053;BME280;50299;49.524;8.536;2023-07-13T09:59:28;100641.22;;;21.53;27.66
64053;BME280;50299;49.524;8.536;2023-07-13T10:01:55;100646.44;;;21.69;28.17
64053;BME280;50299;49.524;8.536;2023-07-13T10:04:30;100642.00;;;21.47;28.32
64053;BME280;50299;49.524;8.536;2023-07-13T10:07:11;100637.09;;;22.65;27.18
64053;BME280;50299;49.524;8.536;2023-07-13T10:09:57;100627.59;;;23.14;25.66
64053;BME280;50299;49.524;8.536;2023-07-13T10:12:24;100618.22;;;23.35;27.98
64053;BME280;50299;49.524;8.536;2023-07-13T10:14:54;100632.78;;;22.17;26.72
64053;BME280;50299;49.524;8.536;2023-07-13T10:17:34;100641.22;;;21.85;27.56
64053;BME280;50299;49.524;8.536;2023-07-13T10:20:04;100638.84;;;21.98;26.07
64053;BME280;50299;49.524;8.536;2023-07-13T10:22:52;100640.13;;;23.06;26.16
64053;BME280;50299;49.524;8.536;2023-07-13T10:25:23;100635.88;;;22.70;26.65
64053;BME280;50299;49.524;8.536;2023-07-13T10:27:54;100637.97;;;23.32;26.32
64053;BME280;50299;49.524;8.536;2023-07-13T10:30:27;100652.63;;;23.02;25.42
64053;BME280;50299;49.524;8.536;2023-07-13T10:32:58;100640.38;;;22.38;26.24
64053;BME280;50299;49.524;8.536;2023-07-13T10:35:27;100658.09;;;22.32;26.29
64053;BME280;50299;49.524;8.536;2023-07-13T10:38:03;100649.56;;;22.64;27.20
64053;BME280;50299;49.524;8.536;2023-07-13T10:40:40;100650.72;;;22.84;26.00
64053;BME280;50299;49.524;8.536;2023-07-13T10:43:18;100648.34;;;22.54;27.43
64053;BME280;50299;49.524;8.536;2023-07-13T10:45:47;100647.69;;;23.24;26.77
64053;BME280;50299;49.524;8.536;2023-07-13T10:48:16;100645.25;;;24.33;25.78
64053;BME280;50299;49.524;8.536;2023-07-13T10:50:45;100639.13;;;24.38;24.66
64053;BME280;50299;49.524;8.536;2023-07-13T10:53:20;100636.09;;;23.07;24.50
64053;BME280;50299;49.524;8.536;2023-07-13T10:58:29;100643.53;;;22.58;25.75
64053;BME280;50299;49.524;8.536;2023-07-13T11:01:11;100640.34;;;22.60;25.06
64053;BME280;50299;49.524;8.536;2023-07-13T11:06:16;100645.59;;;22.43;25.34
64053;BME280;50299;49.524;8.536;2023-07-13T11:11:37;100645.84;;;20.92;27.59
64053;BME280;50299;49.524;8.536;2023-07-13T11:16:55;100640.75;;;22.37;25.44
64053;BME280;50299;49.524;8.536;2023-07-13T11:27:35;100630.66;;;21.18;27.59
64053;BME280;50299;49.524;8.536;2023-07-13T11:32:43;100633.91;;;22.41;25.72
64053;BME280;50299;49.524;8.536;2023-07-13T11:35:18;100641.91;;;22.72;24.49
64053;BME280;50299;49.524;8.536;2023-07-13T11:37:47;100630.38;;;23.81;25.56
64053;BME280;50299;49.524;8.536;2023-07-13T11:40:14;100632.06;;;23.75;23.43
64053;BME280;50299;49.524;8.536;2023-07-13T11:42:41;100627.84;;;24.35;22.80
64053;BME280;50299;49.524;8.536;2023-07-13T11:45:21;100627.56;;;24.22;22.89
64053;BME280;50299;49.524;8.536;2023-07-13T11:48:27;100621.97;;;23.74;24.16
64053;BME280;50299;49.524;8.536;2023-07-13T11:51:00;100620.81;;;24.50;23.76
64053;BME280;50299;49.524;8.536;2023-07-13T11:53:39;100614.75;;;25.94;22.80
64053;BME280;50299;49.524;8.536;2023-07-13T11:56:07;100621.06;;;26.45;21.32
64053;BME280;50299;49.524;8.536;2023-07-13T11:58:34;100628.84;;;25.71;21.94
64053;BME280;50299;49.524;8.536;2023-07-13T12:01:04;100628.44;;;23.71;23.17
64053;BME280;50299;49.524;8.536;2023-07-13T12:03:33;100631.03;;;23.47;24.38
64053;BME280;50299;49.524;8.536;2023-07-13T12:06:04;100619.75;;;23.99;22.92
64053;BME280;50299;49.524;8.536;2023-07-13T12:08:38;100619.38;;;24.73;22.70
64053;BME280;50299;49.524;8.536;2023-07-13T12:11:17;100619.69;;;25.09;22.07
64053;BME280;50299;49.524;8.536;2023-07-13T12:13:46;100618.69;;;24.24;22.18
64053;BME280;50299;49.524;8.536;2023-07-13T12:16:25;100624.56;;;24.74;22.18
64053;BME280;50299;49.524;8.536;2023-07-13T12:18:56;100630.28;;;23.95;23.02
64053;BME280;50299;49.524;8.536;2023-07-13T12:21:30;100639.47;;;22.77;24.48
64053;BME280;50299;49.524;8.536;2023-07-13T12:23:57;100636.41;;;21.93;25.35
64053;BME280;50299;49.524;8.536;2023-07-13T12:26:24;100639.59;;;21.84;26.70
64053;BME280;50299;49.524;8.536;2023-07-13T12:28:55;100632.38;;;22.08;25.48
64053;BME280;50299;49.524;8.536;2023-07-13T12:31:29;100637.50;;;22.49;25.28
64053;BME280;50299;49.524;8.536;2023-07-13T12:34:02;100640.22;;;22.92;25.25
64053;BME280;50299;49.524;8.536;2023-07-13T12:36:32;100627.91;;;23.34;25.11
64053;BME280;50299;49.524;8.536;2023-07-13T12:39:04;100638.38;;;23.37;24.88
64053;BME280;50299;49.524;8.536;2023-07-13T12:41:36;100645.75;;;23.17;25.23
64053;BME280;50299;49.524;8.536;2023-07-13T12:44:04;100648.25;;;22.86;24.87
64053;BME280;50299;49.524;8.536;2023-07-13T12:46:31;100645.72;;;23.13;24.03
64053;BME280;50299;49.524;8.536;2023-07-13T12:48:57;100635.91;;;23.95;23.59
64053;BME280;50299;49.524;8.536;2023-07-13T12:51:42;100648.03;;;24.37;24.11
64053;BME280;50299;49.524;8.536;2023-07-13T12:54:15;100654.09;;;25.04;22.92
64053;BME280;50299;49.524;8.536;2023-07-13T12:56:43;100650.25;;;24.15;21.81
64053;BME280;50299;49.524;8.536;2023-07-13T12:59:17;100647.16;;;24.78;21.15
64053;BME280;50299;49.524;8.536;2023-07-13T13:01:46;100650.59;;;24.58;21.87
64053;BME280;50299;49.524;8.536;2023-07-13T13:04:13;100644.13;;;24.61;23.27
64053;BME280;50299;49.524;8.536;2023-07-13T13:06:40;100646.25;;;23.60;23.67
64053;BME280;50299;49.524;8.536;2023-07-13T13:09:13;100659.44;;;23.08;24.39
64053;BME280;50299;49.524;8.536;2023-07-13T13:11:41;100646.66;;;22.89;24.66
64053;BME280;50299;49.524;8.536;2023-07-13T13:14:08;100659.94;;;22.96;25.18
64053;BME280;50299;49.524;8.536;2023-07-13T13:16:44;100659.38;;;23.29;24.94
64053;BME280;50299;49.524;8.536;2023-07-13T13:19:21;100656.44;;;22.59;25.44
64053;BME280;50299;49.524;8.536;2023-07-13T13:21:49;100654.78;;;22.73;26.08
64053;BME280;50299;49.524;8.536;2023-07-13T13:24:21;100649.22;;;23.39;25.57
64053;BME280;50299;49.524;8.536;2023-07-13T13:26:50;100649.84;;;23.61;24.55